sensor_id;sensor_type;location;lat;lon;timestamp;pressure;altitude;pressure_sealevel;temperature;humidity
6859;BME280;3468;42.824;23.240;2024-03-08T00:01:54;68020.97;;;5.61;100.00
6859;BME280;3468;42.824;23.240;2024-03-08T00:04:21;68029.22;;;5.66;100.00
6859;BME280;3468;42.824;23.240;2024-03-08T00:06:48;68034.69;;;5.44;100.00
6859;BME280;3468;42.824;23.240;2024-03-08T00:09:16;68073.66;;;5.84;100.00
6859;BME280;3468;42.824;23.240;2024-03-08T00:11:43;68106.88;;;5.85;100.00
6859;BME280;3468;42.824;23.240;2024-03-08T00:14:10;67802.41;;;4.15;100.00
6859;BME280;3468;42.824;23.240;2024-03-08T00:16:37;68041.13;;;5.72;100.00
6859;BME280;3468;42.824;23.240;2024-03-08T00:19:05;68029.72;;;5.73;100.00
6859;BME280;3468;42.824;23.240;2024-03-08T00:21:32;68086.63;;;5.63;100.00
6859;BME280;3468;42.824;23.240;2024-03-08T00:23:58;68043.59;;;5.61;100.00
6859;BME280;3468;42.824;23.240;2024-03-08T00:26:25;68066.47;;;5.52;100.00
6859;BME280;3468;42.824;23.240;2024-03-08T00:28:52;68028.44;;;5.50;100.00
6859;BME280;3468;42.824;23.240;2024-03-08T00:31:20;68021.84;;;5.35;100.00
6859;BME280;3468;42.824;23.240;2024-03-08T00:33:47;68053.78;;;5.48;100.00
6859;BME280;3468;42.824;23.240;2024-03-08T00:36:15;68042.38;;;5.49;100.00
6859;BME280;3468;42.824;23.240;2024-03-08T00:38:42;68016.03;;;5.54;100.00
6859;BME280;3468;42.824;23.240;2024-03-08T00:41:08;68090.75;;;5.60;100.00
6859;BME280;3468;42.824;23.240;2024-03-08T00:43:34;67991.13;;;5.52;100.00
6859;BME280;3468;42.824;23.240;2024-03-08T00:46:01;68035.78;;;5.52;100.00
6859;BME280;3468;42.824;23.240;2024-03-08T00:48:28;68083.78;;;5.61;100.00
6859;BME280;3468;42.824;23.240;2024-03-08T00:50:56;68077.03;;;5.59;100.00
6859;BME280;3468;42.824;23.240;2024-03-08T00:53:24;68059.78;;;5.62;100.00
6859;BME280;3468;42.824;23.240;2024-03-08T00:55:51;68038.81;;;5.70;100.00
6859;BME280;3468;42.824;23.240;2024-03-08T00:58:18;68009.38;;;5.29;100.00
6859;BME280;3468;42.824;23.240;2024-03-08T01:00:45;68087.78;;;5.64;100.00
6859;BME280;3468;42.824;23.240;2024-03-08T01:03:11;68049.44;;;5.70;100.00
6859;BME280;3468;42.824;23.240;2024-03-08T01:05:38;68053.06;;;5.77;100.00
6859;BME280;3468;42.824;23.240;2024-03-08T01:08:05;68076.25;;;5.78;100.00
6859;BME280;3468;42.824;23.240;2024-03-08T01:10:34;68065.63;;;5.77;100.00
6859;BME280;3468;42.824;23.240;2024-03-08T01:13:02;68062.22;;;5.68;100.00
6859;BME280;3468;42.824;23.240;2024-03-08T01:15:29;68052.41;;;5.66;100.00
6859;BME280;3468;42.824;23.240;2024-03-08T01:17:55;68089.44;;;5.72;100.00
6859;BME280;3468;42.824;23.240;2024-03-08T01:20:22;68053.50;;;5.74;100.00
6859;BME280;3468;42.824;23.240;2024-03-08T01:22:49;68093.31;;;5.71;100.00
6859;BME280;3468;42.824;23.240;2024-03-08T01:25:16;68081.91;;;5.72;100.00
6859;BME280;3468;42.824;23.240;2024-03-08T01:27:44;68056.59;;;5.74;100.00
6859;BME280;3468;42.824;23.240;2024-03-08T01:30:10;68000.28;;;5.32;100.00
6859;BME280;3468;42.824;23.240;2024-03-08T01:32:38;68089.75;;;5.81;100.00
6859;BME280;3468;42.824;23.240;2024-03-08T01:35:05;68098.78;;;5.84;100.00
6859;BME280;3468;42.824;23.240;2024-03-08T01:37:34;68057.13;;;5.92;100.00
6859;BME280;3468;42.824;23.240;2024-03-08T01:40:02;68064.63;;;5.81;100.00
6859;BME280;3468;42.824;23.240;2024-03-08T01:42:29;68063.22;;;5.99;100.00
6859;BME280;3468;42.824;23.240;2024-03-08T01:44:57;68059.13;;;6.02;100.00
6859;BME280;3468;42.824;23.240;2024-03-08T01:47:24;68075.69;;;6.06;100.00
6859;BME280;3468;42.824;23.240;2024-03-08T01:49:52;68038.06;;;5.54;100.00
6859;BME280;3468;42.824;23.240;2024-03-08T01:52:19;68028.81;;;5.52;100.00
6859;BME280;3468;42.824;23.240;2024-03-08T01:54:48;68087.84;;;6.10;100.00
6859;BME280;3468;42.824;23.240;2024-03-08T01:57:16;68090.34;;;6.10;100.00
6859;BME280;3468;42.824;23.240;2024-03-08T01:59:43;68068.75;;;6.06;100.00
6859;BME280;3468;42.824;23.240;2024-03-08T02:02:11;68099.13;;;6.04;100.00
6859;BME280;3468;42.824;23.240;2024-03-08T02:04:41;68089.00;;;5.93;100.00
6859;BME280;3468;42.824;23.240;2024-03-08T02:07:08;68084.41;;;5.89;100.00
6859;BME280;3468;42.824;23.240;2024-03-08T02:09:34;68056.41;;;5.87;100.00
6859;BME280;3468;42.824;23.240;2024-03-08T02:12:01;68039.03;;;5.85;100.00
6859;BME280;3468;42.824;23.240;2024-03-08T02:14:28;68058.53;;;5.74;100.00
6859;BME280;3468;42.824;23.240;2024-03-08T02:17:00;68048.03;;;5.77;100.00
6859;BME280;3468;42.824;23.240;2024-03-08T02:19:28;68082.47;;;5.73;100.00
6859;BME280;3468;42.824;23.240;2024-03-08T02:21:57;68029.66;;;5.44;100.00
6859;BME280;3468;42.824;23.240;2024-03-08T02:24:24;68066.09;;;5.50;100.00
6859;BME280;3468;42.824;23.240;2024-03-08T02:26:51;68013.69;;;5.41;100.00
6859;BME280;3468;42.824;23.240;2024-03-08T02:29:19;68042.38;;;5.32;100.00
6859;BME280;3468;42.824;23.240;2024-03-08T02:31:47;68009.16;;;5.31;100.00
6859;BME280;3468;42.824;23.240;2024-03-08T02:34:13;67968.44;;;5.31;100.00
6859;BME280;3468;42.824;23.240;2024-03-08T02:36:40;68040.59;;;5.36;100.00
6859;BME280;3468;42.824;23.240;2024-03-08T02:39:08;68047.47;;;5.42;100.00
6859;BME280;3468;42.824;23.240;2024-03-08T02:41:35;68043.38;;;5.45;100.00
6859;BME280;3468;42.824;23.240;2024-03-08T02:44:02;68048.97;;;5.46;100.00
6859;BME280;3468;42.824;23.240;2024-03-08T02:46:29;68039.50;;;5.46;100.00
6859;BME280;3468;42.824;23.240;2024-03-08T02:48:56;67869.09;;;5.49;100.00
6859;BME280;3468;42.824;23.240;2024-03-08T02:51:23;68035.78;;;5.52;100.00
6859;BME280;3468;42.824;23.240;2024-03-08T02:53:51;68023.56;;;5.54;100.00
6859;BME280;3468;42.824;23.240;2024-03-08T02:56:19;68059.72;;;5.51;100.00
6859;BME280;3468;42.824;23.240;2024-03-08T02:58:47;68023.44;;;5.32;100.00
6859;BME280;3468;42.824;23.240;2024-03-08T03:01:14;68007.22;;;5.14;100.00
6859;BME280;3468;42.824;23.240;2024-03-08T03:03:41;68001.66;;;4.96;100.00
6859;BME280;3468;42.824;23.240;2024-03-08T03:06:07;67980.16;;;4.87;100.00
6859;BME280;3468;42.824;23.240;2024-03-08T03:08:34;67971.97;;;4.75;100.00
6859;BME280;3468;42.824;23.240;2024-03-08T03:11:01;68020.28;;;4.69;100.00
6859;BME280;3468;42.824;23.240;2024-03-08T03:13:29;67945.31;;;4.61;100.00
6859;BME280;3468;42.824;23.240;2024-03-08T03:15:56;67948.47;;;4.55;100.00
6859;BME280;3468;42.824;23.240;2024-03-08T03:18:23;67947.19;;;4.50;100.00
6859;BME280;3468;42.824;23.240;2024-03-08T03:20:51;67961.09;;;4.49;100.00
6859;BME280;3468;42.824;23.240;2024-03-08T03:23:18;67957.22;;;4.50;100.00
6859;BME280;3468;42.824;23.240;2024-03-08T03:25:45;67964.94;;;4.48;100.00
6859;BME280;3468;42.824;23.240;2024-03-08T03:28:12;67944.31;;;4.47;100.00
6859;BME280;3468;42.824;23.240;2024-03-08T03:30:46;67963.09;;;4.42;100.00
6859;BME280;3468;42.824;23.240;2024-03-08T03:33:13;67937.09;;;4.39;100.00
6859;BME280;3468;42.824;23.240;2024-03-08T03:35:40;67950.75;;;4.40;100.00
6859;BME280;3468;42.824;23.240;2024-03-08T03:38:08;67759.28;;;2.53;100.00
6859;BME280;3468;42.824;23.240;2024-03-08T03:40:35;67706.56;;;3.76;100.00
6859;BME280;3468;42.824;23.240;2024-03-08T03:43:03;67943.16;;;4.29;100.00
6859;BME280;3468;42.824;23.240;2024-03-08T03:45:30;67691.91;;;2.98;100.00
6859;BME280;3468;42.824;23.240;2024-03-08T03:48:02;67942.22;;;4.26;100.00
6859;BME280;3468;42.824;23.240;2024-03-08T03:50:28;68002.38;;;4.26;100.00
6859;BME280;3468;42.824;23.240;2024-03-08T03:52:55;67936.66;;;4.25;100.00
6859;BME280;3468;42.824;23.240;2024-03-08T03:55:22;67942.22;;;4.26;100.00
6859;BME280;3468;42.824;23.240;2024-03-08T03:57:49;67926.06;;;4.25;100.00
6859;BME280;3468;42.824;23.240;2024-03-08T04:00:16;67933.13;;;4.29;100.00
6859;BME280;3468;42.824;23.240;2024-03-08T04:02:43;67941.44;;;4.27;100.00
6859;BME280;3468;42.824;23.240;2024-03-08T04:05:11;67923.75;;;4.23;100.00
6859;BME280;3468;42.824;23.240;2024-03-08T04:07:38;67940.59;;;4.18;100.00
6859;BME280;3468;42.824;23.240;2024-03-08T04:10:07;67930.56;;;4.18;100.00
6859;BME280;3468;42.824;23.240;2024-03-08T04:12:35;67967.34;;;4.19;100.00
6859;BME280;3468;42.824;23.240;2024-03-08T04:15:03;67922.44;;;4.17;100.00
6859;BME280;3468;42.824;23.240;2024-03-08T04:17:30;67950.00;;;4.17;100.00
6859;BME280;3468;42.824;23.240;2024-03-08T04:19:57;67963.13;;;4.18;100.00
6859;BME280;3468;42.824;23.240;2024-03-08T04:22:25;67921.00;;;4.08;100.00
6859;BME280;3468;42.824;23.240;2024-03-08T04:24:53;67919.44;;;3.93;100.00
6859;BME280;3468;42.824;23.240;2024-03-08T04:27:20;67899.72;;;3.78;100.00
6859;BME280;3468;42.824;23.240;2024-03-08T04:29:47;67930.41;;;3.72;100.00
6859;BME280;3468;42.824;23.240;2024-03-08T04:32:14;67906.50;;;3.73;100.00
6859;BME280;3468;42.824;23.240;2024-03-08T04:34:40;67876.34;;;3.69;100.00
6859;BME280;3468;42.824;23.240;2024-03-08T04:37:07;67887.25;;;3.72;100.00
6859;BME280;3468;42.824;23.240;2024-03-08T04:39:37;67885.69;;;3.75;100.00
6859;BME280;3468;42.824;23.240;2024-03-08T04:42:05;67904.78;;;3.72;100.00
6859;BME280;3468;42.824;23.240;2024-03-08T04:44:35;67896.28;;;3.75;100.00
6859;BME280;3468;42.824;23.240;2024-03-08T04:47:03;67807.44;;;3.64;100.00
6859;BME280;3468;42.824;23.240;2024-03-08T04:49:31;67903.06;;;3.70;100.00
6859;BME280;3468;42.824;23.240;2024-03-08T04:52:00;67881.41;;;3.63;100.00
6859;BME280;3468;42.824;23.240;2024-03-08T04:54:28;67909.16;;;3.61;100.00
6859;BME280;3468;42.824;23.240;2024-03-08T04:56:56;67847.34;;;3.59;100.00
6859;BME280;3468;42.824;23.240;2024-03-08T04:59:23;67888.34;;;3.62;100.00
6859;BME280;3468;42.824;23.240;2024-03-08T05:01:50;67899.88;;;3.66;100.00
6859;BME280;3468;42.824;23.240;2024-03-08T05:04:16;67942.94;;;3.72;100.00
6859;BME280;3468;42.824;23.240;2024-03-08T05:06:43;67923.53;;;3.67;100.00
6859;BME280;3468;42.824;23.240;2024-03-08T05:09:10;67875.13;;;3.74;100.00
6859;BME280;3468;42.824;23.240;2024-03-08T05:11:41;67919.41;;;3.76;100.00
6859;BME280;3468;42.824;23.240;2024-03-08T05:14:09;67770.66;;;3.28;100.00
6859;BME280;3468;42.824;23.240;2024-03-08T05:16:36;67903.72;;;3.82;100.00
6859;BME280;3468;42.824;23.240;2024-03-08T05:19:03;67909.34;;;3.82;100.00
6859;BME280;3468;42.824;23.240;2024-03-08T05:21:30;67871.56;;;3.84;100.00
6859;BME280;3468;42.824;23.240;2024-03-08T05:23:56;67905.63;;;3.88;100.00
6859;BME280;3468;42.824;23.240;2024-03-08T05:26:23;67915.03;;;3.87;100.00
6859;BME280;3468;42.824;23.240;2024-03-08T05:28:50;67870.91;;;3.90;100.00
6859;BME280;3468;42.824;23.240;2024-03-08T05:31:21;67866.63;;;3.95;100.00
6859;BME280;3468;42.824;23.240;2024-03-08T05:33:49;67902.25;;;3.96;100.00
6859;BME280;3468;42.824;23.240;2024-03-08T05:36:16;67937.47;;;4.00;100.00
6859;BME280;3468;42.824;23.240;2024-03-08T05:38:43;67797.41;;;3.98;100.00
6859;BME280;3468;42.824;23.240;2024-03-08T05:41:09;67875.72;;;4.10;100.00
6859;BME280;3468;42.824;23.240;2024-03-08T05:43:37;67847.28;;;3.66;100.00
6859;BME280;3468;42.824;23.240;2024-03-08T05:46:04;67966.63;;;4.14;100.00
6859;BME280;3468;42.824;23.240;2024-03-08T05:48:32;67957.47;;;4.24;100.00
6859;BME280;3468;42.824;23.240;2024-03-08T05:51:00;67876.13;;;4.23;100.00
6859;BME280;3468;42.824;23.240;2024-03-08T05:53:27;67925.69;;;4.22;100.00
6859;BME280;3468;42.824;23.240;2024-03-08T05:55:59;67811.00;;;2.24;100.00
6859;BME280;3468;42.824;23.240;2024-03-08T05:58:27;67939.31;;;4.47;100.00
6859;BME280;3468;42.824;23.240;2024-03-08T06:00:55;68234.19;;;4.08;100.00
6859;BME280;3468;42.824;23.240;2024-03-08T06:03:22;67970.25;;;4.56;100.00
6859;BME280;3468;42.824;23.240;2024-03-08T06:05:50;67978.72;;;4.59;100.00
6859;BME280;3468;42.824;23.240;2024-03-08T06:08:17;68007.94;;;4.67;100.00
6859;BME280;3468;42.824;23.240;2024-03-08T06:10:44;67985.22;;;4.80;100.00
6859;BME280;3468;42.824;23.240;2024-03-08T06:13:11;68010.03;;;4.89;100.00
6859;BME280;3468;42.824;23.240;2024-03-08T06:15:38;67997.41;;;4.95;100.00
6859;BME280;3468;42.824;23.240;2024-03-08T06:18:05;68019.16;;;5.03;100.00
6859;BME280;3468;42.824;23.240;2024-03-08T06:20:36;68017.72;;;5.10;100.00
6859;BME280;3468;42.824;23.240;2024-03-08T06:23:04;68003.94;;;5.16;100.00
6859;BME280;3468;42.824;23.240;2024-03-08T06:25:31;68020.50;;;5.19;100.00
6859;BME280;3468;42.824;23.240;2024-03-08T06:27:57;68013.63;;;5.31;100.00
6859;BME280;3468;42.824;23.240;2024-03-08T06:30:24;68068.94;;;5.41;100.00
6859;BME280;3468;42.824;23.240;2024-03-08T06:32:51;68035.78;;;5.52;100.00
6859;BME280;3468;42.824;23.240;2024-03-08T06:35:18;68050.97;;;5.56;100.00
6859;BME280;3468;42.824;23.240;2024-03-08T06:37:45;68045.09;;;5.64;100.00
6859;BME280;3468;42.824;23.240;2024-03-08T06:40:14;68054.28;;;5.72;100.00
6859;BME280;3468;42.824;23.240;2024-03-08T06:42:41;68074.09;;;5.80;100.00
6859;BME280;3468;42.824;23.240;2024-03-08T06:45:08;68085.00;;;5.90;100.00
6859;BME280;3468;42.824;23.240;2024-03-08T06:47:35;68081.25;;;5.95;100.00
6859;BME280;3468;42.824;23.240;2024-03-08T06:50:02;68143.38;;;6.08;100.00
6859;BME280;3468;42.824;23.240;2024-03-08T06:52:29;68115.53;;;6.20;100.00
6859;BME280;3468;42.824;23.240;2024-03-08T06:54:56;68123.09;;;6.20;100.00
6859;BME280;3468;42.824;23.240;2024-03-08T06:57:24;67845.78;;;5.05;100.00
6859;BME280;3468;42.824;23.240;2024-03-08T06:59:51;68102.91;;;6.55;100.00
6859;BME280;3468;42.824;23.240;2024-03-08T07:02:19;68130.28;;;6.63;100.00
6859;BME280;3468;42.824;23.240;2024-03-08T07:04:49;68452.31;;;5.86;100.00
6859;BME280;3468;42.824;23.240;2024-03-08T07:07:16;68154.72;;;6.87;100.00
6859;BME280;3468;42.824;23.240;2024-03-08T07:09:45;68176.50;;;6.95;100.00
6859;BME280;3468;42.824;23.240;2024-03-08T07:12:12;68167.28;;;7.04;100.00
6859;BME280;3468;42.824;23.240;2024-03-08T07:14:41;68196.25;;;7.09;100.00
6859;BME280;3468;42.824;23.240;2024-03-08T07:17:11;68194.13;;;7.23;100.00
6859;BME280;3468;42.824;23.240;2024-03-08T07:19:38;68203.84;;;7.20;100.00
6859;BME280;3468;42.824;23.240;2024-03-08T07:22:05;68188.41;;;7.18;100.00
6859;BME280;3468;42.824;23.240;2024-03-08T07:24:34;68477.44;;;6.46;100.00
6859;BME280;3468;42.824;23.240;2024-03-08T07:27:16;68180.78;;;7.07;100.00
6859;BME280;3468;42.824;23.240;2024-03-08T07:29:44;68180.25;;;7.17;100.00
6859;BME280;3468;42.824;23.240;2024-03-08T07:32:11;68041.75;;;6.00;100.00
6859;BME280;3468;42.824;23.240;2024-03-08T07:34:47;68241.72;;;7.42;100.00
6859;BME280;3468;42.824;23.240;2024-03-08T07:37:14;68229.03;;;7.48;100.00
6859;BME280;3468;42.824;23.240;2024-03-08T07:39:40;68182.13;;;7.62;100.00
6859;BME280;3468;42.824;23.240;2024-03-08T07:42:07;68259.28;;;7.77;100.00
6859;BME280;3468;42.824;23.240;2024-03-08T07:44:34;68305.41;;;7.92;100.00
6859;BME280;3468;42.824;23.240;2024-03-08T07:47:02;68288.72;;;8.06;100.00
6859;BME280;3468;42.824;23.240;2024-03-08T07:49:30;68298.28;;;8.17;99.87
6859;BME280;3468;42.824;23.240;2024-03-08T07:51:57;68343.69;;;8.45;100.00
6859;BME280;3468;42.824;23.240;2024-03-08T07:54:24;68291.88;;;8.67;98.96
6859;BME280;3468;42.824;23.240;2024-03-08T07:56:52;68333.19;;;8.81;97.50
6859;BME280;3468;42.824;23.240;2024-03-08T07:59:19;68322.19;;;8.78;96.85
6859;BME280;3468;42.824;23.240;2024-03-08T08:01:46;68320.44;;;8.66;100.00
6859;BME280;3468;42.824;23.240;2024-03-08T08:04:14;68310.84;;;8.84;100.00
6859;BME280;3468;42.824;23.240;2024-03-08T08:06:43;68448.16;;;7.20;100.00
6859;BME280;3468;42.824;23.240;2024-03-08T08:09:10;68364.25;;;9.08;98.14
6859;BME280;3468;42.824;23.240;2024-03-08T08:11:40;68332.88;;;8.90;98.29
6859;BME280;3468;42.824;23.240;2024-03-08T08:14:08;68393.44;;;9.07;96.27
6859;BME280;3468;42.824;23.240;2024-03-08T08:16:36;68275.03;;;9.31;97.08
6859;BME280;3468;42.824;23.240;2024-03-08T08:19:03;68406.78;;;9.34;94.48
6859;BME280;3468;42.824;23.240;2024-03-08T08:21:34;68394.50;;;9.25;96.55
6859;BME280;3468;42.824;23.240;2024-03-08T08:24:02;68387.59;;;9.30;98.37
6859;BME280;3468;42.824;23.240;2024-03-08T08:26:29;68378.84;;;9.07;95.31
6859;BME280;3468;42.824;23.240;2024-03-08T08:28:56;68326.34;;;8.97;100.00
6859;BME280;3468;42.824;23.240;2024-03-08T08:31:23;68366.81;;;9.19;100.00
6859;BME280;3468;42.824;23.240;2024-03-08T08:33:49;68666.03;;;8.57;99.41
6859;BME280;3468;42.824;23.240;2024-03-08T08:36:19;68576.38;;;8.69;99.52
6859;BME280;3468;42.824;23.240;2024-03-08T08:38:47;68367.38;;;9.19;96.72
6859;BME280;3468;42.824;23.240;2024-03-08T08:41:14;68394.84;;;9.28;99.39
6859;BME280;3468;42.824;23.240;2024-03-08T08:43:42;68401.88;;;9.27;90.97
6859;BME280;3468;42.824;23.240;2024-03-08T08:46:10;68199.06;;;9.48;97.37
6859;BME280;3468;42.824;23.240;2024-03-08T08:48:38;68432.47;;;9.58;95.94
6859;BME280;3468;42.824;23.240;2024-03-08T08:51:06;68437.53;;;9.69;99.56
6859;BME280;3468;42.824;23.240;2024-03-08T08:53:37;68415.13;;;9.82;94.80
6859;BME280;3468;42.824;23.240;2024-03-08T08:56:07;68372.91;;;9.15;95.38
6859;BME280;3468;42.824;23.240;2024-03-08T08:58:34;68412.31;;;9.41;95.14
6859;BME280;3468;42.824;23.240;2024-03-08T09:01:01;68402.25;;;9.73;99.13
6859;BME280;3468;42.824;23.240;2024-03-08T09:03:28;68440.44;;;9.82;96.87
6859;BME280;3468;42.824;23.240;2024-03-08T09:05:55;68422.50;;;9.84;97.47
6859;BME280;3468;42.824;23.240;2024-03-08T09:08:22;68309.38;;;9.67;94.60
6859;BME280;3468;42.824;23.240;2024-03-08T09:10:50;68309.72;;;9.15;91.11
6859;BME280;3468;42.824;23.240;2024-03-08T09:13:18;68349.59;;;9.26;94.30
6859;BME280;3468;42.824;23.240;2024-03-08T09:15:45;68434.22;;;9.81;96.41
6859;BME280;3468;42.824;23.240;2024-03-08T09:18:12;68560.22;;;10.85;90.51
6859;BME280;3468;42.824;23.240;2024-03-08T09:20:38;68614.59;;;11.73;88.54
6859;BME280;3468;42.824;23.240;2024-03-08T09:23:06;68681.47;;;12.19;87.00
6859;BME280;3468;42.824;23.240;2024-03-08T09:25:33;68708.97;;;12.82;82.20
6859;BME280;3468;42.824;23.240;2024-03-08T09:28:00;68680.91;;;12.67;82.51
6859;BME280;3468;42.824;23.240;2024-03-08T09:30:28;68698.28;;;12.97;83.21
6859;BME280;3468;42.824;23.240;2024-03-08T09:32:55;68672.84;;;12.60;77.39
6859;BME280;3468;42.824;23.240;2024-03-08T09:35:22;68682.84;;;12.07;85.29
6859;BME280;3468;42.824;23.240;2024-03-08T09:37:49;68682.84;;;12.29;82.10
6859;BME280;3468;42.824;23.240;2024-03-08T09:40:17;68532.72;;;11.68;78.92
6859;BME280;3468;42.824;23.240;2024-03-08T09:42:45;68412.81;;;10.78;77.52
6859;BME280;3468;42.824;23.240;2024-03-08T09:45:12;68617.19;;;12.10;74.82
6859;BME280;3468;42.824;23.240;2024-03-08T09:47:43;68628.75;;;11.98;72.47
6859;BME280;3468;42.824;23.240;2024-03-08T09:50:11;68497.75;;;11.10;73.04
6859;BME280;3468;42.824;23.240;2024-03-08T09:52:38;68554.22;;;11.14;74.28
6859;BME280;3468;42.824;23.240;2024-03-08T09:55:06;68487.75;;;10.71;74.89
6859;BME280;3468;42.824;23.240;2024-03-08T09:57:35;68533.25;;;10.66;74.93
6859;BME280;3468;42.824;23.240;2024-03-08T10:00:03;68438.84;;;9.96;73.35
6859;BME280;3468;42.824;23.240;2024-03-08T10:02:37;68519.44;;;10.54;68.71
6859;BME280;3468;42.824;23.240;2024-03-08T10:05:06;68536.50;;;10.71;74.26
6859;BME280;3468;42.824;23.240;2024-03-08T10:07:35;68523.34;;;10.86;72.40
6859;BME280;3468;42.824;23.240;2024-03-08T10:10:02;68518.97;;;11.02;70.39
6859;BME280;3468;42.824;23.240;2024-03-08T10:12:29;68600.19;;;11.39;67.79
6859;BME280;3468;42.824;23.240;2024-03-08T10:14:58;68637.78;;;11.64;69.65
6859;BME280;3468;42.824;23.240;2024-03-08T10:17:25;68607.72;;;12.04;68.76
6859;BME280;3468;42.824;23.240;2024-03-08T10:19:52;68620.09;;;12.01;65.37
6859;BME280;3468;42.824;23.240;2024-03-08T10:22:20;68656.25;;;12.39;66.47
6859;BME280;3468;42.824;23.240;2024-03-08T10:24:47;68610.88;;;11.94;64.43
6859;BME280;3468;42.824;23.240;2024-03-08T10:27:16;68585.88;;;12.85;60.69
6859;BME280;3468;42.824;23.240;2024-03-08T10:29:46;68767.53;;;13.45;62.53
6859;BME280;3468;42.824;23.240;2024-03-08T10:32:13;68775.16;;;13.45;60.11
6859;BME280;3468;42.824;23.240;2024-03-08T10:34:41;68764.81;;;13.52;61.71
6859;BME280;3468;42.824;23.240;2024-03-08T10:37:14;68807.31;;;13.79;63.64
6859;BME280;3468;42.824;23.240;2024-03-08T10:39:48;68818.63;;;13.91;59.01
6859;BME280;3468;42.824;23.240;2024-03-08T10:42:20;68635.41;;;13.02;61.01
6859;BME280;3468;42.824;23.240;2024-03-08T10:44:55;68711.38;;;12.88;62.40
6859;BME280;3468;42.824;23.240;2024-03-08T10:47:26;68741.16;;;13.05;63.46
6859;BME280;3468;42.824;23.240;2024-03-08T10:50:08;68704.22;;;12.84;64.91
6859;BME280;3468;42.824;23.240;2024-03-08T10:52:38;68592.78;;;12.28;64.69
6859;BME280;3468;42.824;23.240;2024-03-08T10:55:07;68733.53;;;13.05;60.10
6859;BME280;3468;42.824;23.240;2024-03-08T10:57:38;68727.09;;;12.74;62.05
6859;BME280;3468;42.824;23.240;2024-03-08T11:00:06;68683.72;;;12.43;61.35
6859;BME280;3468;42.824;23.240;2024-03-08T11:02:37;68652.34;;;12.29;63.62
6859;BME280;3468;42.824;23.240;2024-03-08T11:05:04;68536.66;;;12.04;62.61
6859;BME280;3468;42.824;23.240;2024-03-08T11:07:33;68654.13;;;12.09;67.02
6859;BME280;3468;42.824;23.240;2024-03-08T11:10:02;68633.47;;;11.96;69.58
6859;BME280;3468;42.824;23.240;2024-03-08T11:12:36;68639.19;;;12.33;67.36
6859;BME280;3468;42.824;23.240;2024-03-08T11:15:10;68596.50;;;11.59;68.67
6859;BME280;3468;42.824;23.240;2024-03-08T11:17:45;68396.56;;;10.71;67.26
6859;BME280;3468;42.824;23.240;2024-03-08T11:20:13;68523.91;;;10.97;71.12
6859;BME280;3468;42.824;23.240;2024-03-08T11:22:48;68584.38;;;11.71;68.61
6859;BME280;3468;42.824;23.240;2024-03-08T11:25:33;68659.47;;;11.85;69.20
6859;BME280;3468;42.824;23.240;2024-03-08T11:28:13;68456.78;;;10.92;70.27
6859;BME280;3468;42.824;23.240;2024-03-08T11:30:44;68584.84;;;11.78;63.22
6859;BME280;3468;42.824;23.240;2024-03-08T11:33:13;68648.91;;;12.26;63.93
6859;BME280;3468;42.824;23.240;2024-03-08T11:35:40;68721.47;;;12.62;64.20
6859;BME280;3468;42.824;23.240;2024-03-08T11:38:11;68847.94;;;12.40;67.69
6859;BME280;3468;42.824;23.240;2024-03-08T11:40:39;68646.28;;;12.00;64.39
6859;BME280;3468;42.824;23.240;2024-03-08T11:43:07;68566.66;;;11.27;66.69
6859;BME280;3468;42.824;23.240;2024-03-08T11:45:35;68627.84;;;11.73;67.58
6859;BME280;3468;42.824;23.240;2024-03-08T11:48:03;68609.84;;;11.75;69.66
6859;BME280;3468;42.824;23.240;2024-03-08T11:50:30;68581.63;;;11.62;71.94
6859;BME280;3468;42.824;23.240;2024-03-08T11:53:02;68554.63;;;11.43;70.14
6859;BME280;3468;42.824;23.240;2024-03-08T11:55:29;68609.28;;;11.75;69.05
6859;BME280;3468;42.824;23.240;2024-03-08T11:58:01;68648.69;;;12.17;68.50
6859;BME280;3468;42.824;23.240;2024-03-08T12:00:28;68635.78;;;11.97;69.88
6859;BME280;3468;42.824;23.240;2024-03-08T12:03:05;68647.97;;;10.71;68.29
6859;BME280;3468;42.824;23.240;2024-03-08T12:05:33;68552.38;;;11.30;71.52
6859;BME280;3468;42.824;23.240;2024-03-08T12:08:00;68806.78;;;11.12;71.49
6859;BME280;3468;42.824;23.240;2024-03-08T12:10:27;68536.47;;;10.82;72.48
6859;BME280;3468;42.824;23.240;2024-03-08T12:12:58;68507.56;;;10.31;72.48
6859;BME280;3468;42.824;23.240;2024-03-08T12:15:25;68495.59;;;10.69;74.51
6859;BME280;3468;42.824;23.240;2024-03-08T12:17:54;68544.31;;;11.02;72.31
6859;BME280;3468;42.824;23.240;2024-03-08T12:20:25;68596.34;;;11.88;66.39
6859;BME280;3468;42.824;23.240;2024-03-08T12:22:54;68615.84;;;11.89;65.56
6859;BME280;3468;42.824;23.240;2024-03-08T12:25:22;68590.16;;;11.65;62.25
6859;BME280;3468;42.824;23.240;2024-03-08T12:27:49;68591.53;;;11.64;67.12
6859;BME280;3468;42.824;23.240;2024-03-08T12:30:22;68568.84;;;11.57;65.48
6859;BME280;3468;42.824;23.240;2024-03-08T12:32:53;68573.28;;;11.90;67.60
6859;BME280;3468;42.824;23.240;2024-03-08T12:35:24;68630.38;;;11.84;71.62
6859;BME280;3468;42.824;23.240;2024-03-08T12:37:53;68678.78;;;9.54;70.70
6859;BME280;3468;42.824;23.240;2024-03-08T12:40:26;68538.41;;;11.47;66.97
6859;BME280;3468;42.824;23.240;2024-03-08T12:42:54;68649.53;;;12.05;68.70
6859;BME280;3468;42.824;23.240;2024-03-08T12:45:21;68584.38;;;11.38;66.67
6859;BME280;3468;42.824;23.240;2024-03-08T12:47:49;68518.72;;;10.93;68.66
6859;BME280;3468;42.824;23.240;2024-03-08T12:50:17;68533.72;;;10.84;70.62
6859;BME280;3468;42.824;23.240;2024-03-08T12:52:45;68573.34;;;11.03;73.69
6859;BME280;3468;42.824;23.240;2024-03-08T12:55:13;68602.16;;;11.60;67.92
6859;BME280;3468;42.824;23.240;2024-03-08T12:57:41;68489.28;;;11.81;65.34
6859;BME280;3468;42.824;23.240;2024-03-08T13:00:09;68561.13;;;11.20;67.88
6859;BME280;3468;42.824;23.240;2024-03-08T13:02:39;68572.88;;;11.17;67.52
6859;BME280;3468;42.824;23.240;2024-03-08T13:05:07;68510.22;;;10.90;66.85
6859;BME280;3468;42.824;23.240;2024-03-08T13:07:36;68337.50;;;10.72;67.84
6859;BME280;3468;42.824;23.240;2024-03-08T13:10:06;68562.03;;;11.23;64.48
6859;BME280;3468;42.824;23.240;2024-03-08T13:12:39;68590.69;;;11.87;66.34
6859;BME280;3468;42.824;23.240;2024-03-08T13:15:07;68660.22;;;12.27;65.61
6859;BME280;3468;42.824;23.240;2024-03-08T13:17:37;68695.59;;;12.66;62.12